Time;durP1;ratioP1;P1;durP2;ratioP2;P2;SDS_P1;SDS_P2;PMS_P1;PMS_P2;Temp;Humidity;BMP_temperature;BMP_pressure;BME280_temperature;BME280_humidity;BME280_pressure;Samples;Min_cycle;Max_cycle;Signal;HPM_P1;HPM_P2
2022/03/22 00:02:18;;;;;;;2.43;0.93;;;4.90;71.60;;;;;;4955728;29;20488;-80
2022/03/22 00:04:45;;;;;;;0.70;0.60;;;4.90;72.00;;;;;;4955915;29;20446;-81
2022/03/22 00:07:12;;;;;;;1.27;1.10;;;4.90;69.90;;;;;;4955814;29;20465;-81
2022/03/22 00:09:38;;;;;;;0.90;0.90;;;4.90;70.60;;;;;;4955740;29;20459;-81
2022/03/22 00:12:07;;;;;;;1.17;0.50;;;4.90;71.40;;;;;;4957760;29;20454;-81
2022/03/22 00:14:34;;;;;;;1.03;0.87;;;4.90;71.10;;;;;;4958063;29;20893;-81
2022/03/22 00:17:04;;;;;;;0.87;0.87;;;4.80;71.40;;;;;;4958125;29;20485;-80
2022/03/22 00:19:31;;;;;;;3.13;0.63;;;4.80;72.20;;;;;;4958058;29;20481;-81
2022/03/22 00:21:58;;;;;;;0.90;0.90;;;4.70;72.80;;;;;;4957684;29;20451;-80
2022/03/22 00:24:24;;;;;;;0.57;0.57;;;4.70;73.60;;;;;;4957280;29;20447;-81
2022/03/22 00:26:51;;;;;;;0.30;0.30;;;4.60;73.70;;;;;;4956982;29;20457;-80
2022/03/22 00:29:18;;;;;;;0.40;0.40;;;4.60;74.00;;;;;;4957157;29;20484;-80
2022/03/22 00:31:45;;;;;;;0.40;0.30;;;4.50;74.30;;;;;;4956581;29;20454;-81
2022/03/22 00:34:13;;;;;;;1.77;0.80;;;4.50;74.40;;;;;;4956417;29;20458;-81
2022/03/22 00:36:40;;;;;;;0.30;0.30;;;4.50;75.30;;;;;;4956329;29;20457;-81
2022/03/22 00:39:06;;;;;;;0.30;0.20;;;4.50;76.00;;;;;;4957027;29;20538;-80
2022/03/22 00:41:33;;;;;;;0.30;0.30;;;4.50;74.70;;;;;;4956703;29;20456;-81
2022/03/22 00:44:00;;;;;;;0.40;0.40;;;4.50;73.60;;;;;;4956448;29;20446;-81
2022/03/22 00:46:27;;;;;;;0.80;0.60;;;4.50;74.10;;;;;;4956124;29;20447;-80
2022/03/22 00:48:53;;;;;;;0.30;0.30;;;4.50;74.30;;;;;;4956405;29;20474;-81
2022/03/22 00:51:23;;;;;;;0.40;0.40;;;4.50;74.80;;;;;;4955786;28;20458;-81
2022/03/22 00:53:51;;;;;;;0.30;0.30;;;4.50;75.30;;;;;;4958368;29;20460;-81
2022/03/22 00:56:18;;;;;;;0.30;0.30;;;4.40;75.30;;;;;;4961926;29;20489;-80
2022/03/22 00:58:45;;;;;;;0.30;0.30;;;4.40;76.00;;;;;;4961442;29;20486;-80
2022/03/22 01:01:12;;;;;;;6.20;0.77;;;4.40;76.00;;;;;;4961154;29;20454;-80
2022/03/22 01:03:39;;;;;;;0.30;0.30;;;4.50;76.70;;;;;;4959408;29;20454;-81
2022/03/22 01:06:06;;;;;;;7.80;1.13;;;4.40;76.30;;;;;;4959165;29;20451;-81
2022/03/22 01:08:34;;;;;;;0.30;0.30;;;4.40;76.60;;;;;;4958547;29;20515;-80
2022/03/22 01:11:02;;;;;;;0.37;0.30;;;4.40;76.60;;;;;;4958514;29;20465;-80
2022/03/22 01:13:29;;;;;;;0.57;0.40;;;4.30;76.90;;;;;;4960441;29;20461;-81
2022/03/22 01:15:57;;;;;;;0.70;0.63;;;4.30;77.10;;;;;;4960003;29;20482;-80
2022/03/22 01:18:25;;;;;;;0.50;0.50;;;4.30;77.60;;;;;;4960541;29;20505;-80
2022/03/22 01:20:51;;;;;;;0.40;0.40;;;4.20;76.30;;;;;;4961206;29;20545;-80
2022/03/22 01:23:20;;;;;;;0.40;0.40;;;4.10;75.20;;;;;;4961326;29;20458;-80
2022/03/22 01:25:49;;;;;;;0.30;0.30;;;4.10;74.90;;;;;;4959859;29;20958;-80
2022/03/22 01:28:16;;;;;;;0.33;0.30;;;4.10;75.60;;;;;;4958531;29;20981;-81
2022/03/22 01:30:43;;;;;;;0.40;0.30;;;4.10;75.90;;;;;;4959074;29;20449;-81
2022/03/22 01:33:12;;;;;;;0.50;0.50;;;4.10;76.70;;;;;;4958498;29;20438;-81
2022/03/22 01:35:39;;;;;;;0.40;0.40;;;4.00;77.20;;;;;;4958940;29;20485;-80
2022/03/22 01:38:06;;;;;;;0.40;0.40;;;4.00;76.30;;;;;;4959220;29;20478;-81
2022/03/22 01:40:33;;;;;;;0.37;0.30;;;3.90;75.90;;;;;;4958854;29;20509;-81
2022/03/22 01:43:01;;;;;;;0.73;0.73;;;3.90;77.00;;;;;;4959184;29;20803;-80
2022/03/22 01:45:29;;;;;;;0.30;0.30;;;3.90;78.10;;;;;;4958260;29;20458;-81
2022/03/22 01:47:59;;;;;;;0.30;0.30;;;3.90;78.20;;;;;;4957939;29;20454;-80
2022/03/22 01:50:26;;;;;;;0.53;0.53;;;3.90;78.70;;;;;;4958001;29;20435;-80
2022/03/22 01:52:57;;;;;;;0.30;0.27;;;3.90;79.70;;;;;;4957928;29;20493;-80
2022/03/22 01:55:25;;;;;;;0.50;0.50;;;3.80;78.90;;;;;;4958555;29;20478;-80
2022/03/22 01:57:52;;;;;;;0.40;0.40;;;3.80;79.50;;;;;;4957440;29;20834;-80
2022/03/22 02:00:21;;;;;;;0.50;0.50;;;3.70;81.20;;;;;;4957453;29;20811;-80
2022/03/22 02:05:56;;;;;;;0.30;0.30;;;3.60;81.90;;;;;;4958046;29;20405;-80
2022/03/22 02:08:25;;;;;;;0.40;0.40;;;3.60;82.40;;;;;;4957523;29;20454;-80
2022/03/22 02:10:52;;;;;;;0.30;0.30;;;3.60;82.50;;;;;;4957598;29;20445;-80
2022/03/22 02:13:19;;;;;;;0.50;0.50;;;3.60;82.80;;;;;;4957985;29;20455;-80
2022/03/22 02:15:50;;;;;;;0.50;0.50;;;3.60;82.50;;;;;;4957618;29;20482;-80
2022/03/22 02:18:17;;;;;;;0.83;0.83;;;3.60;84.30;;;;;;4957498;29;20505;-80
2022/03/22 02:20:45;;;;;;;0.40;0.40;;;3.60;83.90;;;;;;4957879;29;20798;-80
2022/03/22 02:23:17;;;;;;;0.60;0.57;;;3.60;83.90;;;;;;4957754;29;20442;-81
2022/03/22 02:25:45;;;;;;;0.30;0.20;;;3.60;82.90;;;;;;4957702;29;20434;-80
2022/03/22 02:28:12;;;;;;;0.70;0.70;;;3.60;84.00;;;;;;4957564;29;20478;-80
2022/03/22 02:30:39;;;;;;;0.30;0.23;;;3.50;84.60;;;;;;4957949;29;20458;-80
2022/03/22 02:33:06;;;;;;;0.60;0.60;;;3.50;85.40;;;;;;4957343;29;20497;-80
2022/03/22 02:35:33;;;;;;;1.80;0.60;;;3.50;85.80;;;;;;4957747;29;20493;-81
2022/03/22 02:38:00;;;;;;;0.30;0.20;;;3.40;85.60;;;;;;4957662;29;20446;-81
2022/03/22 02:40:28;;;;;;;1.27;1.27;;;3.40;85.70;;;;;;4957625;29;20456;-81
2022/03/22 02:43:01;;;;;;;0.30;0.30;;;3.40;83.90;;;;;;4958633;29;20786;-80
2022/03/22 02:45:27;;;;;;;0.43;0.43;;;3.50;84.30;;;;;;4957758;29;20427;-80
2022/03/22 02:47:54;;;;;;;0.30;0.30;;;3.50;83.60;;;;;;4957874;29;20422;-80
2022/03/22 02:50:21;;;;;;;0.53;0.43;;;3.60;83.50;;;;;;4957289;29;20442;-81
2022/03/22 02:52:49;;;;;;;0.93;0.40;;;3.60;85.10;;;;;;4957669;29;20946;-81
2022/03/22 02:55:16;;;;;;;0.50;0.30;;;3.60;86.20;;;;;;4957350;29;20993;-81
2022/03/22 02:57:43;;;;;;;0.37;0.37;;;3.50;86.30;;;;;;4956607;29;20482;-81
2022/03/22 03:00:14;;;;;;;0.40;0.40;;;3.40;86.50;;;;;;4956919;29;21005;-81
2022/03/22 03:02:42;;;;;;;0.60;0.60;;;3.40;87.10;;;;;;4957261;29;20447;-80
2022/03/22 03:05:09;;;;;;;0.30;0.30;;;3.30;88.10;;;;;;4956869;29;20946;-80
2022/03/22 03:07:36;;;;;;;0.30;0.30;;;3.30;86.80;;;;;;4957336;29;20446;-80
2022/03/22 03:10:04;;;;;;;0.30;0.30;;;3.30;85.70;;;;;;4956915;29;20474;-80
2022/03/22 03:12:31;;;;;;;1.43;0.50;;;3.30;86.20;;;;;;4956913;29;20454;-81
2022/03/22 03:14:58;;;;;;;0.30;0.23;;;3.30;87.20;;;;;;4956235;28;20443;-80
2022/03/22 03:17:26;;;;;;;5.03;1.13;;;3.30;88.40;;;;;;4956848;29;20526;-80
2022/03/22 03:19:53;;;;;;;0.57;0.57;;;3.30;88.50;;;;;;4956542;29;20462;-80
2022/03/22 03:22:20;;;;;;;0.30;0.30;;;3.30;88.80;;;;;;4956532;29;20438;-80
2022/03/22 03:24:47;;;;;;;0.37;0.33;;;3.20;88.60;;;;;;4956857;29;20461;-80
2022/03/22 03:27:14;;;;;;;0.60;0.60;;;3.10;88.40;;;;;;4957052;29;20457;-80
2022/03/22 03:29:41;;;;;;;0.30;0.30;;;3.10;89.40;;;;;;4960197;29;20481;-80
2022/03/22 03:32:08;;;;;;;0.30;0.30;;;3.00;89.50;;;;;;4957972;29;20462;-80
2022/03/22 03:34:37;;;;;;;1.23;0.43;;;3.00;89.60;;;;;;4957200;29;20460;-80
2022/03/22 03:37:05;;;;;;;1.03;0.50;;;2.90;90.00;;;;;;4956998;29;20823;-80
2022/03/22 03:39:31;;;;;;;0.40;0.30;;;2.90;90.00;;;;;;4956616;29;20470;-81
2022/03/22 03:41:59;;;;;;;0.70;0.70;;;2.90;90.30;;;;;;4956451;29;20440;-80
2022/03/22 03:47:13;;;;;;;0.30;0.30;;;2.80;90.80;;;;;;4956707;29;20402;-80
2022/03/22 03:49:43;;;;;;;1.43;0.47;;;2.90;90.80;;;;;;4956792;29;20482;-80
2022/03/22 03:52:12;;;;;;;0.50;0.50;;;2.90;91.20;;;;;;4956675;29;20449;-80
2022/03/22 03:54:40;;;;;;;0.30;0.30;;;2.80;91.50;;;;;;4956625;29;20830;-80
2022/03/22 03:57:07;;;;;;;0.43;0.40;;;2.80;91.70;;;;;;4956347;29;20514;-80
2022/03/22 03:59:35;;;;;;;0.50;0.50;;;2.80;90.70;;;;;;4956868;29;20480;-80
2022/03/22 04:02:02;;;;;;;1.80;1.70;;;2.70;90.70;;;;;;4956908;29;20466;-79
2022/03/22 04:04:29;;;;;;;0.40;0.30;;;2.70;90.80;;;;;;4956866;29;20453;-80
2022/03/22 04:06:57;;;;;;;0.30;0.30;;;2.70;91.00;;;;;;4956758;29;20775;-80
2022/03/22 04:09:24;;;;;;;0.43;0.43;;;2.60;90.40;;;;;;4956413;29;20466;-80
2022/03/22 04:11:51;;;;;;;0.30;0.30;;;2.60;90.20;;;;;;4956566;29;20450;-80
2022/03/22 04:14:19;;;;;;;0.70;0.50;;;2.60;90.20;;;;;;4957010;29;20458;-80
2022/03/22 04:16:47;;;;;;;0.90;0.50;;;2.70;90.60;;;;;;4955625;29;20482;-80
2022/03/22 04:19:14;;;;;;;0.37;0.37;;;2.70;90.70;;;;;;4955043;29;20517;-80
2022/03/22 04:21:40;;;;;;;0.53;0.53;;;2.60;90.60;;;;;;4955244;29;20980;-80
2022/03/22 04:24:10;;;;;;;0.30;0.30;;;2.60;90.50;;;;;;4955412;29;20438;-80
2022/03/22 04:26:38;;;;;;;0.60;0.50;;;2.60;91.10;;;;;;4956953;28;20454;-80
2022/03/22 04:34:34;;;;;;;1.10;1.10;;;2.50;91.50;;;;;;4960286;29;20410;-80
2022/03/22 04:37:01;;;;;;;0.30;0.20;;;2.50;91.40;;;;;;4965676;29;20496;-80
2022/03/22 04:39:31;;;;;;;0.77;0.77;;;2.50;91.40;;;;;;4959472;29;20464;-80
2022/03/22 04:41:59;;;;;;;0.30;0.30;;;2.50;91.70;;;;;;4959180;29;20435;-80
2022/03/22 04:44:28;;;;;;;1.20;0.67;;;2.50;92.30;;;;;;4959172;29;21034;-80
2022/03/22 04:46:56;;;;;;;0.50;0.50;;;2.50;92.30;;;;;;4959287;29;20450;-80
2022/03/22 04:49:23;;;;;;;1.57;1.47;;;2.50;92.60;;;;;;4959214;29;20565;-80
2022/03/22 04:57:19;;;;;;;0.50;0.33;;;2.50;93.00;;;;;;4958970;29;20966;-80
2022/03/22 04:59:47;;;;;;;0.50;0.40;;;2.50;93.40;;;;;;4959248;29;20474;-80
2022/03/22 05:02:14;;;;;;;0.30;0.30;;;2.50;93.90;;;;;;4959295;29;20821;-80
2022/03/22 05:04:41;;;;;;;0.50;0.50;;;2.50;94.50;;;;;;4958865;29;20962;-80
2022/03/22 05:07:08;;;;;;;0.30;0.30;;;2.50;94.70;;;;;;4959017;29;20481;-80
2022/03/22 05:09:36;;;;;;;0.30;0.30;;;2.40;94.50;;;;;;4958721;29;20512;-80
2022/03/22 05:12:04;;;;;;;1.43;0.40;;;2.40;94.70;;;;;;4959105;29;20453;-80
2022/03/22 05:14:32;;;;;;;1.53;1.43;;;2.30;94.90;;;;;;4959304;29;20450;-80
2022/03/22 05:16:59;;;;;;;0.83;0.83;;;2.30;95.20;;;;;;4959296;29;20549;-80
2022/03/22 05:19:26;;;;;;;1.13;1.13;;;2.30;95.40;;;;;;4958894;29;20481;-80
2022/03/22 05:21:53;;;;;;;0.30;0.20;;;2.30;95.90;;;;;;4959437;29;20461;-80
2022/03/22 05:24:20;;;;;;;2.00;0.57;;;2.20;96.40;;;;;;4959437;29;20450;-80
2022/03/22 05:26:50;;;;;;;0.70;0.70;;;2.20;97.00;;;;;;4959258;29;20451;-80
2022/03/22 05:29:17;;;;;;;0.40;0.40;;;2.20;97.60;;;;;;4958955;29;20516;-80
2022/03/22 05:31:45;;;;;;;0.87;0.87;;;2.30;97.90;;;;;;4959100;29;20934;-80
2022/03/22 05:34:12;;;;;;;0.30;0.30;;;2.20;98.00;;;;;;4959934;29;20516;-80
2022/03/22 05:36:39;;;;;;;0.43;0.43;;;2.20;98.60;;;;;;4961016;29;20482;-80
2022/03/22 05:39:06;;;;;;;0.30;0.30;;;2.20;98.30;;;;;;4958596;28;20997;-80
2022/03/22 05:41:33;;;;;;;0.30;0.20;;;2.20;99.00;;;;;;4958166;29;20442;-80
2022/03/22 05:44:01;;;;;;;0.30;0.30;;;2.20;99.60;;;;;;4957948;29;20454;-80
2022/03/22 05:46:28;;;;;;;0.97;0.60;;;2.20;99.90;;;;;;4957935;29;20472;-80
2022/03/22 05:48:56;;;;;;;0.30;0.30;;;2.20;99.90;;;;;;4958036;29;20474;-80
2022/03/22 05:51:23;;;;;;;1.70;0.80;;;2.20;99.90;;;;;;4957728;29;21031;-80
2022/03/22 05:53:50;;;;;;;0.40;0.40;;;2.30;99.90;;;;;;4957817;29;20884;-80
2022/03/22 05:56:17;;;;;;;0.60;0.60;;;2.30;99.90;;;;;;4957531;29;20478;-80
2022/03/22 05:58:44;;;;;;;0.50;0.50;;;2.40;99.90;;;;;;4957203;29;20497;-80
2022/03/22 06:01:13;;;;;;;0.40;0.40;;;2.50;99.90;;;;;;4957478;29;20438;-80
2022/03/22 06:03:39;;;;;;;0.30;0.30;;;2.50;99.90;;;;;;4959363;29;20459;-80
2022/03/22 06:06:06;;;;;;;0.30;0.30;;;2.60;99.90;;;;;;4957692;29;20888;-81
2022/03/22 06:08:34;;;;;;;0.50;0.50;;;2.70;99.90;;;;;;4957554;29;20458;-80
2022/03/22 06:11:01;;;;;;;3.70;0.60;;;2.70;99.90;;;;;;4957525;29;20462;-80
2022/03/22 06:13:27;;;;;;;1.13;1.13;;;2.70;99.90;;;;;;4957517;29;20549;-80
2022/03/22 06:15:55;;;;;;;1.07;0.70;;;2.80;99.90;;;;;;4957068;29;20498;-80
2022/03/22 06:18:23;;;;;;;0.40;0.40;;;2.90;99.90;;;;;;4957266;29;20478;-81
2022/03/22 06:20:50;;;;;;;0.47;0.47;;;3.00;99.90;;;;;;4957938;29;20446;-81
2022/03/22 06:23:17;;;;;;;0.40;0.40;;;3.20;99.90;;;;;;4956991;29;20437;-80
2022/03/22 06:25:44;;;;;;;1.17;1.07;;;3.60;99.70;;;;;;4957259;29;20543;-80
2022/03/22 06:28:14;;;;;;;1.40;1.30;;;4.40;98.10;;;;;;4956799;29;21005;-80
2022/03/22 06:30:41;;;;;;;3.03;1.40;;;5.30;96.40;;;;;;4956816;29;20843;-81
2022/03/22 06:33:10;;;;;;;0.40;0.33;;;6.20;94.70;;;;;;4956813;29;21056;-80
2022/03/22 06:35:39;;;;;;;0.77;0.40;;;6.90;93.00;;;;;;4956781;29;20931;-80
2022/03/22 06:38:06;;;;;;;0.43;0.43;;;7.10;91.60;;;;;;4956838;29;20493;-80
2022/03/22 06:40:34;;;;;;;1.73;1.40;;;6.90;91.10;;;;;;4956902;29;20454;-80
2022/03/22 06:43:02;;;;;;;2.00;0.97;;;6.60;90.90;;;;;;4956871;29;20505;-81
2022/03/22 06:45:29;;;;;;;1.50;1.50;;;6.10;91.30;;;;;;4956638;29;20462;-81
2022/03/22 06:47:56;;;;;;;2.30;1.43;;;5.80;92.00;;;;;;4956653;29;20457;-81
2022/03/22 06:50:24;;;;;;;0.60;0.60;;;5.50;92.70;;;;;;4955704;28;20454;-80
2022/03/22 06:52:53;;;;;;;0.73;0.70;;;5.40;93.70;;;;;;4956590;29;20549;-80
2022/03/22 06:55:22;;;;;;;0.30;0.30;;;5.20;94.10;;;;;;4956621;29;20485;-81
2022/03/22 06:57:50;;;;;;;0.50;0.50;;;5.10;94.00;;;;;;4956119;29;20548;-80
2022/03/22 07:00:20;;;;;;;3.23;0.83;;;5.10;93.90;;;;;;4956306;29;20443;-81
2022/03/22 07:02:48;;;;;;;0.57;0.50;;;5.00;94.20;;;;;;4956233;29;20931;-80
2022/03/22 07:05:16;;;;;;;0.40;0.30;;;5.10;94.80;;;;;;4956299;29;20466;-81
2022/03/22 07:07:44;;;;;;;3.27;1.13;;;5.10;95.40;;;;;;4956130;29;20447;-80
2022/03/22 07:10:13;;;;;;;0.47;0.47;;;5.20;95.70;;;;;;4956487;29;20460;-81
2022/03/22 07:12:51;;;;;;;0.83;0.80;;;5.20;95.70;;;;;;4956273;29;20454;-81
2022/03/22 07:15:20;;;;;;;0.53;0.53;;;5.20;96.10;;;;;;4956209;29;20549;-81
2022/03/22 07:17:47;;;;;;;0.47;0.47;;;5.30;95.90;;;;;;4956115;29;20904;-81
2022/03/22 07:20:14;;;;;;;1.40;1.40;;;5.30;96.00;;;;;;4956207;29;20460;-81
2022/03/22 07:22:43;;;;;;;0.60;0.50;;;5.40;95.80;;;;;;4956158;29;20458;-81
2022/03/22 07:25:11;;;;;;;0.40;0.40;;;5.50;95.80;;;;;;4956109;29;20797;-81
2022/03/22 07:27:38;;;;;;;0.70;0.70;;;5.50;95.70;;;;;;4955686;29;21001;-81
2022/03/22 07:30:06;;;;;;;0.40;0.37;;;5.60;95.80;;;;;;4955732;29;20470;-81
2022/03/22 07:32:33;;;;;;;1.03;0.93;;;5.70;95.00;;;;;;4956387;29;20498;-81
2022/03/22 07:35:00;;;;;;;0.73;0.73;;;6.00;94.20;;;;;;4956479;29;20470;-81
2022/03/22 07:37:29;;;;;;;1.47;0.70;;;6.40;92.50;;;;;;4956464;29;20912;-80
2022/03/22 07:39:57;;;;;;;0.50;0.50;;;6.40;92.40;;;;;;4957950;29;20529;-80
2022/03/22 07:42:27;;;;;;;0.40;0.37;;;6.30;92.50;;;;;;4958051;29;20468;-81
2022/03/22 07:44:55;;;;;;;0.63;0.40;;;6.40;92.60;;;;;;4957466;29;20447;-80
2022/03/22 07:47:22;;;;;;;1.37;0.80;;;6.50;93.20;;;;;;4956529;29;20415;-81
2022/03/22 07:55:17;;;;;;;1.53;0.70;;;6.80;93.00;;;;;;4955858;29;20412;-80
2022/03/22 07:57:46;;;;;;;1.30;0.70;;;7.00;92.00;;;;;;4955029;29;21076;-81
2022/03/22 08:00:13;;;;;;;0.93;0.47;;;7.10;91.60;;;;;;4956053;29;20461;-80
2022/03/22 08:02:51;;;;;;;1.07;1.07;;;7.20;91.30;;;;;;4955361;28;20458;-81
2022/03/22 08:05:17;;;;;;;0.97;0.97;;;7.50;88.00;;;;;;4955793;29;20922;-80
2022/03/22 08:07:44;;;;;;;0.87;0.70;;;7.70;86.00;;;;;;4956348;29;20838;-80
2022/03/22 08:10:11;;;;;;;1.27;1.17;;;7.90;84.50;;;;;;4956553;29;20441;-80
2022/03/22 08:12:38;;;;;;;1.00;1.00;;;8.10;83.70;;;;;;4955815;29;20438;-81
2022/03/22 08:15:07;;;;;;;0.83;0.77;;;8.30;80.80;;;;;;4955124;29;20461;-80
2022/03/22 08:17:33;;;;;;;0.50;0.50;;;8.50;81.40;;;;;;4955555;29;20537;-81
2022/03/22 08:20:00;;;;;;;2.53;1.97;;;8.70;80.40;;;;;;4955446;29;20478;-81
2022/03/22 08:22:27;;;;;;;0.80;0.80;;;8.90;79.30;;;;;;4955173;29;20461;-80
2022/03/22 08:24:54;;;;;;;1.80;1.60;;;9.10;77.50;;;;;;4955131;29;20812;-80
2022/03/22 08:27:20;;;;;;;2.13;1.10;;;9.30;75.40;;;;;;4955351;29;20446;-81
2022/03/22 08:29:47;;;;;;;1.03;0.80;;;9.40;75.60;;;;;;4954891;29;20470;-81
2022/03/22 08:32:15;;;;;;;0.80;0.80;;;9.60;75.00;;;;;;4955047;29;20434;-80
2022/03/22 08:34:42;;;;;;;1.27;1.17;;;9.80;76.20;;;;;;4955351;29;20446;-81
2022/03/22 08:37:12;;;;;;;0.60;0.60;;;9.90;76.10;;;;;;4958483;29;20486;-81
2022/03/22 08:39:39;;;;;;;4.30;1.10;;;10.10;76.00;;;;;;4955168;29;20475;-81
2022/03/22 08:42:06;;;;;;;3.50;1.40;;;10.30;75.10;;;;;;4955063;29;20443;-81
2022/03/22 08:44:33;;;;;;;0.70;0.70;;;10.50;74.60;;;;;;4955070;29;20450;-81
2022/03/22 08:47:01;;;;;;;0.80;0.47;;;10.70;73.90;;;;;;4955103;29;20450;-81
2022/03/22 08:49:29;;;;;;;2.40;1.10;;;10.90;71.80;;;;;;4955183;29;20561;-80
2022/03/22 08:51:56;;;;;;;2.53;1.17;;;11.00;72.70;;;;;;4955206;29;20446;-81
2022/03/22 08:54:22;;;;;;;2.00;1.00;;;11.20;71.50;;;;;;4955097;29;20461;-81
2022/03/22 08:56:49;;;;;;;1.50;0.83;;;11.50;69.90;;;;;;4954829;29;20438;-82
2022/03/22 08:59:16;;;;;;;2.53;0.60;;;11.80;69.40;;;;;;4954927;29;20472;-81
2022/03/22 09:01:44;;;;;;;2.20;1.03;;;12.10;68.20;;;;;;4955083;29;20465;-81
2022/03/22 09:06:57;;;;;;;3.87;1.00;;;12.60;64.60;;;;;;4955130;29;20774;-81
2022/03/22 09:09:24;;;;;;;3.03;1.30;;;13.20;62.70;;;;;;4954880;29;20474;-81
2022/03/22 09:11:50;;;;;;;6.70;2.37;;;14.20;61.60;;;;;;4954718;29;20458;-81
2022/03/22 09:14:17;;;;;;;2.13;1.20;;;15.70;61.90;;;;;;4957057;28;20920;-81
2022/03/22 09:16:44;;;;;;;4.57;2.63;;;17.40;56.10;;;;;;4959048;29;20450;-81
2022/03/22 09:19:12;;;;;;;3.17;2.30;;;19.10;52.20;;;;;;4958490;29;20477;-82
2022/03/22 09:21:39;;;;;;;5.33;2.20;;;20.70;48.90;;;;;;4958304;29;20817;-82
2022/03/22 09:24:07;;;;;;;3.60;2.35;;;21.80;46.10;;;;;;4958223;29;20477;-82
2022/03/22 09:26:34;;;;;;;5.22;2.42;;;22.70;44.50;;;;;;4958372;29;20233;-80
2022/03/22 09:29:01;;;;;;;4.43;3.10;;;23.60;43.40;;;;;;4958507;29;20600;-82
2022/03/22 09:31:28;;;;;;;5.15;2.63;;;24.40;40.10;;;;;;4958468;29;20198;-82
2022/03/22 09:33:56;;;;;;;16.23;3.22;;;24.60;39.20;;;;;;4958210;29;20247;-82
2022/03/22 09:36:23;;;;;;;5.10;3.25;;;24.50;37.80;;;;;;4958508;29;20245;-81
2022/03/22 09:38:50;;;;;;;9.32;3.38;;;24.90;37.70;;;;;;4957943;29;20709;-82
2022/03/22 09:41:18;;;;;;;3.42;2.13;;;25.40;37.10;;;;;;4958214;29;20206;-82
2022/03/22 09:43:47;;;;;;;8.13;3.00;;;25.80;35.30;;;;;;4958044;29;20297;-81
2022/03/22 09:46:18;;;;;;;6.93;2.63;;;26.20;35.30;;;;;;4958188;29;20190;-81
2022/03/22 09:48:46;;;;;;;7.38;3.25;;;25.80;34.70;;;;;;4957886;29;20237;-81
2022/03/22 09:53:56;;;;;;;3.55;2.20;;;26.40;34.40;;;;;;4948215;29;20222;-81
2022/03/22 09:56:29;;;;;;;5.35;3.65;;;26.80;30.90;;;;;;4957871;29;20217;-82
2022/03/22 09:58:57;;;;;;;3.25;2.53;;;26.70;32.00;;;;;;4957562;29;20242;-82
2022/03/22 10:01:24;;;;;;;6.93;3.08;;;26.30;32.30;;;;;;4957823;29;20213;-81
2022/03/22 10:04:00;;;;;;;6.57;2.70;;;26.00;33.00;;;;;;4957512;29;20293;-81
2022/03/22 10:06:27;;;;;;;4.20;2.83;;;26.20;32.00;;;;;;4957830;29;20227;-82
2022/03/22 10:08:54;;;;;;;3.47;2.30;;;25.90;31.80;;;;;;4957671;29;20233;-82
2022/03/22 10:11:21;;;;;;;5.97;3.00;;;26.00;30.50;;;;;;4957666;29;20572;-82
2022/03/22 10:13:54;;;;;;;3.63;2.58;;;26.30;30.20;;;;;;4957580;29;20202;-82
2022/03/22 10:16:21;;;;;;;6.15;3.30;;;26.20;30.10;;;;;;4957488;29;20217;-82
2022/03/22 10:18:48;;;;;;;4.93;2.95;;;25.90;31.10;;;;;;4957440;29;20225;-83
2022/03/22 10:21:15;;;;;;;3.42;2.75;;;26.00;30.40;;;;;;4957459;29;20217;-82
2022/03/22 10:23:50;;;;;;;6.93;3.00;;;26.10;30.50;;;;;;4957622;28;20210;-82
2022/03/22 10:26:16;;;;;;;5.72;3.53;;;26.30;31.10;;;;;;4957513;29;20210;-82
2022/03/22 10:28:55;;;;;;;4.90;2.90;;;26.80;30.00;;;;;;4957049;29;20309;-82
2022/03/22 10:31:33;;;;;;;3.78;2.92;;;27.30;30.00;;;;;;4957354;29;20194;-82
2022/03/22 10:34:01;;;;;;;5.35;2.80;;;27.00;29.00;;;;;;4957508;29;20183;-82
2022/03/22 10:36:28;;;;;;;4.63;2.67;;;26.70;30.50;;;;;;4957151;29;20213;-82
2022/03/22 10:38:57;;;;;;;2.97;2.40;;;26.30;30.30;;;;;;4956882;29;20230;-81
2022/03/22 10:41:28;;;;;;;5.35;2.67;;;26.30;29.90;;;;;;4957015;29;20209;-82
2022/03/22 10:44:04;;;;;;;3.10;2.25;;;26.80;29.50;;;;;;4957320;29;20199;-81
2022/03/22 10:46:31;;;;;;;4.40;2.60;;;27.70;29.90;;;;;;4957214;29;20205;-81
2022/03/22 10:49:04;;;;;;;3.60;2.35;;;28.70;28.60;;;;;;4956893;29;20226;-82
2022/03/22 10:51:36;;;;;;;8.07;3.38;;;29.10;29.50;;;;;;4957174;29;20198;-81
2022/03/22 10:54:03;;;;;;;6.72;3.45;;;30.30;27.40;;;;;;4956873;29;20302;-82
2022/03/22 10:56:31;;;;;;;3.90;3.30;;;30.80;27.10;;;;;;4956855;29;20664;-81
2022/03/22 10:58:59;;;;;;;6.88;3.55;;;31.20;26.90;;;;;;4956314;29;20591;-82
2022/03/22 11:01:28;;;;;;;3.92;2.47;;;31.50;26.50;;;;;;4956711;29;20207;-82
2022/03/22 11:03:58;;;;;;;5.20;2.40;;;31.40;26.10;;;;;;4956801;29;20207;-81
2022/03/22 11:06:30;;;;;;;5.90;2.67;;;30.70;26.50;;;;;;4961420;29;20195;-82
2022/03/22 11:08:58;;;;;;;5.68;2.58;;;30.00;26.70;;;;;;4956448;29;20248;-82
2022/03/22 11:11:25;;;;;;;4.38;2.95;;;29.00;26.90;;;;;;4956575;29;20211;-81
2022/03/22 11:13:52;;;;;;;7.22;3.63;;;26.70;29.00;;;;;;4956774;29;20206;-81
2022/03/22 11:16:20;;;;;;;6.55;2.95;;;25.00;29.90;;;;;;4956499;29;20210;-82
2022/03/22 11:18:49;;;;;;;6.97;3.55;;;23.90;31.10;;;;;;4956340;29;20636;-82
2022/03/22 11:21:18;;;;;;;5.82;3.13;;;22.90;32.70;;;;;;4956680;29;20210;-82
2022/03/22 11:23:47;;;;;;;6.25;3.05;;;22.10;33.30;;;;;;4956517;29;20233;-82
2022/03/22 11:26:16;;;;;;;3.80;2.17;;;21.40;34.20;;;;;;4956448;29;20214;-81
2022/03/22 11:28:45;;;;;;;5.57;3.20;;;21.10;34.80;;;;;;4956285;29;20233;-82
2022/03/22 11:31:14;;;;;;;8.03;3.60;;;20.60;34.70;;;;;;4956363;29;20206;-82
2022/03/22 11:36:36;;;;;;;6.93;3.00;;;20.10;37.10;;;;;;4956286;28;20497;-82
2022/03/22 11:39:04;;;;;;;4.87;3.50;;;20.10;36.70;;;;;;4956160;29;20472;-82
2022/03/22 11:44:20;;;;;;;5.60;3.50;;;20.00;35.60;;;;;;4956105;29;20417;-82
2022/03/22 11:46:49;;;;;;;7.00;3.67;;;19.80;35.80;;;;;;4956080;29;20493;-81
2022/03/22 11:49:18;;;;;;;8.57;3.50;;;19.60;36.10;;;;;;4955653;29;21140;-81
2022/03/22 11:51:58;;;;;;;6.10;3.60;;;19.40;36.50;;;;;;4956059;29;20949;-82
2022/03/22 11:54:27;;;;;;;12.93;2.63;;;19.20;37.60;;;;;;4956261;29;20870;-81
2022/03/22 11:56:58;;;;;;;3.60;2.33;;;19.00;36.50;;;;;;4955774;29;20482;-81
2022/03/22 11:59:26;;;;;;;3.60;2.23;;;18.90;36.90;;;;;;4955872;29;20471;-82
2022/03/22 12:02:01;;;;;;;3.33;2.37;;;18.70;37.70;;;;;;4956019;29;20537;-82
2022/03/22 12:04:37;;;;;;;5.10;2.50;;;18.70;38.70;;;;;;4955790;29;20520;-81
2022/03/22 12:07:07;;;;;;;3.53;2.60;;;18.70;39.30;;;;;;4956191;29;20461;-81
2022/03/22 12:09:34;;;;;;;7.93;2.80;;;18.60;39.70;;;;;;4955521;29;20489;-81
2022/03/22 12:12:06;;;;;;;4.57;2.87;;;18.70;38.50;;;;;;4955842;29;20454;-81
2022/03/22 12:14:35;;;;;;;3.43;2.03;;;18.50;39.20;;;;;;4956128;29;20809;-82
2022/03/22 12:17:02;;;;;;;5.53;3.20;;;18.40;39.70;;;;;;4955781;29;20938;-82
2022/03/22 12:19:30;;;;;;;2.03;1.67;;;18.40;39.90;;;;;;4955683;29;20470;-81
2022/03/22 12:21:58;;;;;;;7.80;2.60;;;18.30;39.40;;;;;;4955783;29;20545;-82
2022/03/22 12:24:33;;;;;;;2.37;1.97;;;18.10;39.50;;;;;;4955415;29;20954;-82
2022/03/22 12:27:01;;;;;;;8.43;2.43;;;18.10;39.40;;;;;;4955823;29;20485;-82
2022/03/22 12:29:28;;;;;;;7.13;3.50;;;17.90;39.60;;;;;;4955217;29;20486;-82
2022/03/22 12:31:56;;;;;;;3.13;2.27;;;17.80;40.00;;;;;;4955456;29;20451;-82
2022/03/22 12:34:26;;;;;;;6.63;2.97;;;17.80;39.80;;;;;;4955629;29;20453;-82
2022/03/22 12:36:53;;;;;;;4.40;2.43;;;17.70;40.30;;;;;;4955593;29;20458;-81
2022/03/22 12:46:55;;;;;;;9.03;2.90;;;17.10;40.30;;;;;;4951261;29;20939;-82
2022/03/22 12:50:03;;;;;;;3.47;1.83;;;16.90;41.80;;;;;;4945631;29;20521;-81
2022/03/22 12:53:04;;;;;;;2.80;1.73;;;16.80;41.30;;;;;;4900152;29;20477;-82
2022/03/22 13:11:26;;;;;;;3.20;2.00;;;16.60;41.10;;;;;;4953983;29;20470;-82
2022/03/22 13:11:29;;;;;;;7.57;2.00;;;16.60;41.00;;;;;;4958250;29;20448;-82
2022/03/22 13:17:00;;;;;;;2.50;1.40;;;16.40;41.20;;;;;;4958920;29;20410;-82
2022/03/22 13:19:32;;;;;;;3.53;2.03;;;16.40;41.70;;;;;;4958665;29;20466;-82
2022/03/22 13:22:00;;;;;;;4.00;2.10;;;16.40;40.60;;;;;;4958758;29;21074;-82
2022/03/22 13:24:29;;;;;;;3.27;1.40;;;16.40;40.20;;;;;;4958556;29;20467;-82
2022/03/22 13:26:58;;;;;;;3.57;2.60;;;16.30;40.50;;;;;;4958440;29;21046;-82
2022/03/22 13:29:34;;;;;;;5.10;1.90;;;16.30;40.30;;;;;;4959635;29;20501;-82
2022/03/22 13:32:02;;;;;;;5.27;1.67;;;16.20;41.10;;;;;;4958361;29;20460;-82
2022/03/22 13:34:30;;;;;;;2.70;1.20;;;16.20;40.60;;;;;;4957879;29;20962;-82
2022/03/22 13:37:07;;;;;;;7.57;2.07;;;16.20;39.80;;;;;;4958013;29;20438;-82
2022/03/22 13:39:34;;;;;;;3.27;2.27;;;16.20;40.30;;;;;;4957907;29;20492;-82
2022/03/22 13:42:13;;;;;;;2.60;1.40;;;16.20;40.50;;;;;;4957864;29;20434;-82
2022/03/22 13:44:51;;;;;;;1.53;1.43;;;16.10;39.80;;;;;;4958115;29;20450;-83
2022/03/22 13:47:30;;;;;;;3.83;2.67;;;15.90;40.70;;;;;;4957896;29;20756;-82
2022/03/22 13:49:57;;;;;;;3.13;1.60;;;15.80;41.60;;;;;;4958023;29;20490;-82
2022/03/22 13:52:31;;;;;;;1.50;1.40;;;15.80;40.90;;;;;;4957866;29;20461;-82
2022/03/22 13:54:58;;;;;;;4.27;1.63;;;15.90;40.30;;;;;;4957744;29;20825;-82
2022/03/22 13:57:28;;;;;;;3.73;1.50;;;15.80;40.70;;;;;;4957590;29;20517;-82